KHOB

Lea County Regional Airport

Hobbs, New Mexico, USA
METAR KHOB 221450Z 10012G18KT 10SM OVC018 21/13 A3006
Observed Flight Rules
May-22 @ 14:50 UTC (40 minutes ago) Marginal Visual Flight Rules
Wind Visibility Clouds
100° at 12 knots
 Gusting to 18 knots
10 miles
  • Overcast at 1,800' AGL
Temperatures Readings
Current 21°C / 70°F
Dewpoint 13°C / 55°F
Humidity 60%
Altimeter 30.06" Hg
Pressure 1018 hPa
Elevation 1115
METAR KHOB 221450Z 10012G18KT 10SM OVC018 21/13 A3006
Observed Flight Rules
May-22 @ 14:50 UTC
(40 minutes ago)
MVFR
Wind Visibility
100° at 12 knots
 Gusting to 18 knots
10 miles
Clouds
  • Overcast at 1,800' AGL
Temperature Dewpoint
21°C / 70°F 13°C / 55°F
Humidity Altimeter Pressure
60% 30.06" Hg 1018 hPa